sensor_id;sensor_type;location;lat;lon;timestamp;pressure;altitude;pressure_sealevel;temperature;humidity
74561;BME280;62979;55.720;37.606;2022-10-31T00:00:54;98023.16;;;1.00;59.01
74561;BME280;62979;55.720;37.606;2022-10-31T00:03:21;98020.69;;;0.95;58.77
74561;BME280;62979;55.720;37.606;2022-10-31T00:05:49;98025.75;;;1.00;58.60
74561;BME280;62979;55.720;37.606;2022-10-31T00:08:17;98031.75;;;1.00;58.73
74561;BME280;62979;55.720;37.606;2022-10-31T00:10:45;98009.22;;;1.18;58.84
74561;BME280;62979;55.720;37.606;2022-10-31T00:13:13;98015.13;;;1.24;58.39
74561;BME280;62979;55.720;37.606;2022-10-31T00:15:42;98014.44;;;1.13;57.95
74561;BME280;62979;55.720;37.606;2022-10-31T00:18:10;98015.22;;;1.17;57.58
74561;BME280;62979;55.720;37.606;2022-10-31T00:20:38;98005.81;;;1.14;57.79
74561;BME280;62979;55.720;37.606;2022-10-31T00:23:06;98004.97;;;1.15;57.70
74561;BME280;62979;55.720;37.606;2022-10-31T00:25:37;97995.41;;;1.23;57.29
74561;BME280;62979;55.720;37.606;2022-10-31T00:28:06;98004.00;;;1.22;56.78
74561;BME280;62979;55.720;37.606;2022-10-31T00:30:35;98024.00;;;1.03;57.49
74561;BME280;62979;55.720;37.606;2022-10-31T00:33:04;98009.34;;;1.07;57.43
74561;BME280;62979;55.720;37.606;2022-10-31T00:35:31;97985.44;;;0.97;57.91
74561;BME280;62979;55.720;37.606;2022-10-31T00:37:58;98017.13;;;1.04;57.79
74561;BME280;62979;55.720;37.606;2022-10-31T00:40:25;97988.91;;;0.98;57.64
74561;BME280;62979;55.720;37.606;2022-10-31T00:42:52;98009.56;;;0.92;57.83
74561;BME280;62979;55.720;37.606;2022-10-31T00:45:19;97985.38;;;1.02;57.70
74561;BME280;62979;55.720;37.606;2022-10-31T00:47:46;98004.91;;;1.17;57.51
74561;BME280;62979;55.720;37.606;2022-10-31T00:50:15;97996.28;;;1.19;57.36
74561;BME280;62979;55.720;37.606;2022-10-31T00:52:42;97987.84;;;1.10;57.05
74561;BME280;62979;55.720;37.606;2022-10-31T00:55:09;97992.03;;;1.20;57.35
74561;BME280;62979;55.720;37.606;2022-10-31T00:57:36;97988.56;;;1.22;57.28
74561;BME280;62979;55.720;37.606;2022-10-31T01:00:03;97998.94;;;1.16;56.83
74561;BME280;62979;55.720;37.606;2022-10-31T01:02:31;97983.25;;;1.32;56.77
74561;BME280;62979;55.720;37.606;2022-10-31T01:04:58;97982.38;;;1.33;56.99
74561;BME280;62979;55.720;37.606;2022-10-31T01:07:26;97989.50;;;1.15;56.57
74561;BME280;62979;55.720;37.606;2022-10-31T01:09:53;97981.75;;;1.18;56.28
74561;BME280;62979;55.720;37.606;2022-10-31T01:12:20;97961.44;;;0.97;56.94
74561;BME280;62979;55.720;37.606;2022-10-31T01:14:48;97980.13;;;1.11;56.99
74561;BME280;62979;55.720;37.606;2022-10-31T01:17:15;97984.38;;;1.12;56.99
74561;BME280;62979;55.720;37.606;2022-10-31T01:19:42;97970.59;;;1.16;57.05
74561;BME280;62979;55.720;37.606;2022-10-31T01:22:09;97982.31;;;1.37;57.10
74561;BME280;62979;55.720;37.606;2022-10-31T01:24:37;97972.94;;;1.33;57.11
74561;BME280;62979;55.720;37.606;2022-10-31T01:27:04;97984.00;;;1.38;57.22
74561;BME280;62979;55.720;37.606;2022-10-31T01:29:31;97983.16;;;1.38;57.70
74561;BME280;62979;55.720;37.606;2022-10-31T01:31:58;97981.75;;;1.17;58.53
74561;BME280;62979;55.720;37.606;2022-10-31T01:34:25;97984.25;;;1.24;58.27
74561;BME280;62979;55.720;37.606;2022-10-31T01:36:52;97978.38;;;1.13;60.33
74561;BME280;62979;55.720;37.606;2022-10-31T01:39:19;97993.94;;;1.04;64.06
74561;BME280;62979;55.720;37.606;2022-10-31T01:41:50;98007.78;;;0.97;62.42
74561;BME280;62979;55.720;37.606;2022-10-31T01:47:35;97995.19;;;0.75;64.28
74561;BME280;62979;55.720;37.606;2022-10-31T01:50:13;97994.31;;;0.76;65.16
74561;BME280;62979;55.720;37.606;2022-10-31T01:52:51;98013.63;;;0.38;70.49
74561;BME280;62979;55.720;37.606;2022-10-31T01:55:22;98004.72;;;0.67;72.59
74561;BME280;62979;55.720;37.606;2022-10-31T01:57:55;97995.22;;;0.71;72.52
74561;BME280;62979;55.720;37.606;2022-10-31T02:00:26;98026.00;;;0.80;69.48
74561;BME280;62979;55.720;37.606;2022-10-31T02:02:53;97991.88;;;0.66;68.44
74561;BME280;62979;55.720;37.606;2022-10-31T02:05:22;98012.53;;;0.59;70.69
74561;BME280;62979;55.720;37.606;2022-10-31T02:07:57;98012.44;;;0.66;69.19
74561;BME280;62979;55.720;37.606;2022-10-31T02:10:27;98016.84;;;0.56;69.95
74561;BME280;62979;55.720;37.606;2022-10-31T02:12:56;98003.41;;;0.31;73.13
74561;BME280;62979;55.720;37.606;2022-10-31T02:15:28;98008.47;;;0.41;73.49
74561;BME280;62979;55.720;37.606;2022-10-31T02:17:57;98016.03;;;0.51;73.24
74561;BME280;62979;55.720;37.606;2022-10-31T02:20:28;98017.91;;;0.39;72.87
74561;BME280;62979;55.720;37.606;2022-10-31T02:23:26;98020.50;;;0.36;73.38
74561;BME280;62979;55.720;37.606;2022-10-31T02:26:37;98010.19;;;0.38;71.85
74561;BME280;62979;55.720;37.606;2022-10-31T02:29:54;98002.53;;;0.33;72.67
74561;BME280;62979;55.720;37.606;2022-10-31T02:32:42;98007.63;;;0.36;72.43
74561;BME280;62979;55.720;37.606;2022-10-31T02:35:26;97996.50;;;0.37;72.62
74561;BME280;62979;55.720;37.606;2022-10-31T02:38:06;97996.63;;;0.24;72.24
74561;BME280;62979;55.720;37.606;2022-10-31T02:40:49;98016.53;;;0.08;76.15
74561;BME280;62979;55.720;37.606;2022-10-31T02:43:26;98001.97;;;0.05;77.94
74561;BME280;62979;55.720;37.606;2022-10-31T02:46:07;98006.13;;;0.18;80.08
74561;BME280;62979;55.720;37.606;2022-10-31T02:48:44;98018.16;;;0.12;78.94
74561;BME280;62979;55.720;37.606;2022-10-31T02:51:14;98006.19;;;0.12;78.02
74561;BME280;62979;55.720;37.606;2022-10-31T02:53:43;98007.81;;;0.21;77.37
74561;BME280;62979;55.720;37.606;2022-10-31T02:56:12;98019.72;;;0.30;77.17
74561;BME280;62979;55.720;37.606;2022-10-31T02:58:44;98019.13;;;0.03;76.47
74561;BME280;62979;55.720;37.606;2022-10-31T03:01:36;98006.28;;;0.02;76.94
74561;BME280;62979;55.720;37.606;2022-10-31T03:07:38;97991.91;;;-0.16;76.45
74561;BME280;62979;55.720;37.606;2022-10-31T03:10:17;97995.16;;;0.01;76.16
74561;BME280;62979;55.720;37.606;2022-10-31T03:12:58;98009.72;;;0.01;75.84
74561;BME280;62979;55.720;37.606;2022-10-31T03:15:34;98020.81;;;0.06;76.14
74561;BME280;62979;55.720;37.606;2022-10-31T03:18:08;98006.31;;;-0.03;75.18
74561;BME280;62979;55.720;37.606;2022-10-31T03:20:41;98003.75;;;-0.02;75.13
74561;BME280;62979;55.720;37.606;2022-10-31T03:23:15;98009.69;;;0.02;79.76
74561;BME280;62979;55.720;37.606;2022-10-31T03:25:45;98011.34;;;0.11;78.86
74561;BME280;62979;55.720;37.606;2022-10-31T03:28:17;98027.56;;;0.16;75.24
74561;BME280;62979;55.720;37.606;2022-10-31T03:30:49;98007.88;;;0.15;75.12
74561;BME280;62979;55.720;37.606;2022-10-31T03:33:22;98005.31;;;0.12;73.54
74561;BME280;62979;55.720;37.606;2022-10-31T03:35:57;98018.16;;;0.13;72.94
74561;BME280;62979;55.720;37.606;2022-10-31T03:38:29;98008.69;;;0.17;73.71
74561;BME280;62979;55.720;37.606;2022-10-31T03:41:01;98012.00;;;0.28;73.63
74561;BME280;62979;55.720;37.606;2022-10-31T03:43:36;98012.09;;;0.19;72.86
74561;BME280;62979;55.720;37.606;2022-10-31T03:46:09;98004.56;;;0.05;73.30
74561;BME280;62979;55.720;37.606;2022-10-31T03:48:36;98011.38;;;0.08;75.15
74561;BME280;62979;55.720;37.606;2022-10-31T03:51:10;98010.41;;;0.18;74.39
74561;BME280;62979;55.720;37.606;2022-10-31T03:53:46;98023.06;;;0.36;74.01
74561;BME280;62979;55.720;37.606;2022-10-31T03:56:21;98017.09;;;0.34;72.45
74561;BME280;62979;55.720;37.606;2022-10-31T03:58:58;98046.28;;;0.29;72.25
74561;BME280;62979;55.720;37.606;2022-10-31T04:01:30;98030.91;;;0.24;72.84
74561;BME280;62979;55.720;37.606;2022-10-31T04:04:02;98018.13;;;0.16;73.30
74561;BME280;62979;55.720;37.606;2022-10-31T04:06:31;98027.53;;;0.22;73.36
74561;BME280;62979;55.720;37.606;2022-10-31T04:09:04;98031.69;;;0.31;75.42
74561;BME280;62979;55.720;37.606;2022-10-31T04:11:36;98033.44;;;0.29;75.32
74561;BME280;62979;55.720;37.606;2022-10-31T04:14:10;98024.81;;;0.34;74.16
74561;BME280;62979;55.720;37.606;2022-10-31T04:16:39;98045.31;;;0.40;73.93
74561;BME280;62979;55.720;37.606;2022-10-31T04:19:08;98053.06;;;0.37;73.92
74561;BME280;62979;55.720;37.606;2022-10-31T04:21:37;98047.97;;;0.34;75.33
74561;BME280;62979;55.720;37.606;2022-10-31T04:24:04;98040.34;;;0.24;74.36
74561;BME280;62979;55.720;37.606;2022-10-31T04:26:32;98037.75;;;0.25;75.01
74561;BME280;62979;55.720;37.606;2022-10-31T04:28:59;98048.91;;;0.26;76.20
74561;BME280;62979;55.720;37.606;2022-10-31T04:31:26;98050.56;;;0.28;75.49
74561;BME280;62979;55.720;37.606;2022-10-31T04:33:53;98060.09;;;0.20;74.68
74561;BME280;62979;55.720;37.606;2022-10-31T04:36:20;98065.31;;;0.11;73.85
74561;BME280;62979;55.720;37.606;2022-10-31T04:38:49;98063.56;;;0.16;74.51
74561;BME280;62979;55.720;37.606;2022-10-31T04:41:16;98061.78;;;0.21;74.17
74561;BME280;62979;55.720;37.606;2022-10-31T04:43:43;98064.34;;;0.23;73.85
74561;BME280;62979;55.720;37.606;2022-10-31T04:46:10;98063.50;;;0.19;73.68
74561;BME280;62979;55.720;37.606;2022-10-31T04:48:37;98070.19;;;0.41;74.42
74561;BME280;62979;55.720;37.606;2022-10-31T04:51:04;98063.25;;;0.47;73.29
74561;BME280;62979;55.720;37.606;2022-10-31T04:53:31;98075.19;;;0.54;73.20
74561;BME280;62979;55.720;37.606;2022-10-31T04:56:00;98073.47;;;0.53;73.04
74561;BME280;62979;55.720;37.606;2022-10-31T04:58:27;98081.31;;;0.40;74.04
74561;BME280;62979;55.720;37.606;2022-10-31T05:00:55;98052.25;;;0.32;73.83
74561;BME280;62979;55.720;37.606;2022-10-31T05:03:22;98090.78;;;0.35;73.07
74561;BME280;62979;55.720;37.606;2022-10-31T05:05:49;98095.84;;;0.45;72.97
74561;BME280;62979;55.720;37.606;2022-10-31T05:08:16;98086.41;;;0.43;72.96
74561;BME280;62979;55.720;37.606;2022-10-31T05:10:43;98110.41;;;0.46;72.46
74561;BME280;62979;55.720;37.606;2022-10-31T05:13:12;98102.75;;;0.39;72.90
74561;BME280;62979;55.720;37.606;2022-10-31T05:15:40;98113.91;;;0.38;72.57
74561;BME280;62979;55.720;37.606;2022-10-31T05:18:07;98115.69;;;0.29;73.88
74561;BME280;62979;55.720;37.606;2022-10-31T05:20:34;98104.44;;;0.40;75.66
74561;BME280;62979;55.720;37.606;2022-10-31T05:23:01;98106.19;;;0.38;73.28
74561;BME280;62979;55.720;37.606;2022-10-31T05:25:28;98107.91;;;0.39;72.86
74561;BME280;62979;55.720;37.606;2022-10-31T05:27:56;98121.56;;;0.43;73.16
74561;BME280;62979;55.720;37.606;2022-10-31T05:30:26;98130.19;;;0.37;72.27
74561;BME280;62979;55.720;37.606;2022-10-31T05:32:55;98119.91;;;0.37;73.17
74561;BME280;62979;55.720;37.606;2022-10-31T05:35:24;98143.00;;;0.47;72.86
74561;BME280;62979;55.720;37.606;2022-10-31T05:37:53;98132.63;;;0.53;73.04
74561;BME280;62979;55.720;37.606;2022-10-31T05:40:21;98145.41;;;0.62;72.83
74561;BME280;62979;55.720;37.606;2022-10-31T05:42:51;98151.34;;;0.66;72.54
74561;BME280;62979;55.720;37.606;2022-10-31T05:45:19;98151.09;;;0.92;72.37
74561;BME280;62979;55.720;37.606;2022-10-31T05:47:52;98156.31;;;0.85;71.88
74561;BME280;62979;55.720;37.606;2022-10-31T05:50:21;98153.81;;;0.79;72.01
74561;BME280;62979;55.720;37.606;2022-10-31T05:52:54;98161.59;;;0.72;72.24
74561;BME280;62979;55.720;37.606;2022-10-31T05:55:23;98178.63;;;0.85;72.54
74561;BME280;62979;55.720;37.606;2022-10-31T05:57:51;98179.38;;;0.95;73.66
74561;BME280;62979;55.720;37.606;2022-10-31T06:00:18;98189.78;;;0.82;73.15
74561;BME280;62979;55.720;37.606;2022-10-31T06:02:46;98189.75;;;0.87;73.02
74561;BME280;62979;55.720;37.606;2022-10-31T06:05:15;98202.44;;;1.04;73.42
74561;BME280;62979;55.720;37.606;2022-10-31T06:07:42;98199.78;;;1.13;72.79
74561;BME280;62979;55.720;37.606;2022-10-31T06:10:09;98206.47;;;1.30;73.33
74561;BME280;62979;55.720;37.606;2022-10-31T06:12:36;98206.44;;;1.31;71.87
74561;BME280;62979;55.720;37.606;2022-10-31T06:15:05;98222.69;;;1.39;72.82
74561;BME280;62979;55.720;37.606;2022-10-31T06:17:33;98228.69;;;1.40;72.22
74561;BME280;62979;55.720;37.606;2022-10-31T06:20:01;98221.75;;;1.45;72.13
74561;BME280;62979;55.720;37.606;2022-10-31T06:22:31;98235.53;;;1.41;72.21
74561;BME280;62979;55.720;37.606;2022-10-31T06:24:58;98239.59;;;1.60;72.66
74561;BME280;62979;55.720;37.606;2022-10-31T06:27:25;98240.38;;;1.68;71.72
74561;BME280;62979;55.720;37.606;2022-10-31T06:29:52;98246.28;;;1.77;71.05
74561;BME280;62979;55.720;37.606;2022-10-31T06:32:20;98255.88;;;1.62;70.89
74561;BME280;62979;55.720;37.606;2022-10-31T06:34:46;98261.72;;;1.78;71.29
74561;BME280;62979;55.720;37.606;2022-10-31T06:37:14;98272.78;;;1.88;70.89
74561;BME280;62979;55.720;37.606;2022-10-31T06:39:43;98272.63;;;1.99;70.72
74561;BME280;62979;55.720;37.606;2022-10-31T06:42:10;98289.03;;;1.93;70.30
74561;BME280;62979;55.720;37.606;2022-10-31T06:44:37;98282.09;;;1.95;70.71
74561;BME280;62979;55.720;37.606;2022-10-31T06:47:05;98293.09;;;2.09;70.80
74561;BME280;62979;55.720;37.606;2022-10-31T06:49:32;98289.56;;;2.20;70.58
74561;BME280;62979;55.720;37.606;2022-10-31T06:51:59;98299.75;;;2.26;70.28
74561;BME280;62979;55.720;37.606;2022-10-31T06:54:26;98308.41;;;2.22;70.03
74561;BME280;62979;55.720;37.606;2022-10-31T06:56:54;98316.88;;;2.33;70.06
74561;BME280;62979;55.720;37.606;2022-10-31T06:59:22;98311.53;;;2.45;69.77
74561;BME280;62979;55.720;37.606;2022-10-31T07:01:49;98326.00;;;2.57;69.85
74561;BME280;62979;55.720;37.606;2022-10-31T07:04:16;98321.69;;;2.57;69.29
74561;BME280;62979;55.720;37.606;2022-10-31T07:06:43;98324.03;;;2.73;69.68
74561;BME280;62979;55.720;37.606;2022-10-31T07:09:10;98323.84;;;2.85;69.26
74561;BME280;62979;55.720;37.606;2022-10-31T07:11:37;98334.97;;;2.89;68.63
74561;BME280;62979;55.720;37.606;2022-10-31T07:14:06;98354.03;;;2.80;68.00
74561;BME280;62979;55.720;37.606;2022-10-31T07:16:33;98368.69;;;2.79;68.60
74561;BME280;62979;55.720;37.606;2022-10-31T07:19:00;98371.19;;;2.84;68.69
74561;BME280;62979;55.720;37.606;2022-10-31T07:21:27;98369.44;;;2.86;68.58
74561;BME280;62979;55.720;37.606;2022-10-31T07:23:54;98370.28;;;2.87;68.56
74561;BME280;62979;55.720;37.606;2022-10-31T07:26:21;98389.94;;;2.98;68.46
74561;BME280;62979;55.720;37.606;2022-10-31T07:28:48;98396.78;;;2.99;69.01
74561;BME280;62979;55.720;37.606;2022-10-31T07:31:16;98393.16;;;3.13;69.00
74561;BME280;62979;55.720;37.606;2022-10-31T07:33:43;98405.22;;;3.11;68.57
74561;BME280;62979;55.720;37.606;2022-10-31T07:36:10;98411.13;;;3.19;68.83
74561;BME280;62979;55.720;37.606;2022-10-31T07:38:37;98422.22;;;3.27;69.44
74561;BME280;62979;55.720;37.606;2022-10-31T07:41:04;98429.78;;;3.38;68.29
74561;BME280;62979;55.720;37.606;2022-10-31T07:43:31;98433.06;;;3.48;67.45
74561;BME280;62979;55.720;37.606;2022-10-31T07:45:58;98447.75;;;3.46;66.99
74561;BME280;62979;55.720;37.606;2022-10-31T07:48:27;98458.78;;;3.55;67.10
74561;BME280;62979;55.720;37.606;2022-10-31T07:50:54;98453.66;;;3.54;67.13
74561;BME280;62979;55.720;37.606;2022-10-31T07:53:21;98470.81;;;3.58;67.31
74561;BME280;62979;55.720;37.606;2022-10-31T07:55:48;98482.81;;;3.62;67.58
74561;BME280;62979;55.720;37.606;2022-10-31T07:58:16;98485.41;;;3.60;68.21
74561;BME280;62979;55.720;37.606;2022-10-31T08:00:45;98478.69;;;3.52;68.31
74561;BME280;62979;55.720;37.606;2022-10-31T08:03:15;98478.63;;;3.53;68.73
74561;BME280;62979;55.720;37.606;2022-10-31T08:05:44;98487.09;;;3.63;68.84
74561;BME280;62979;55.720;37.606;2022-10-31T08:08:13;98492.25;;;3.63;68.42
74561;BME280;62979;55.720;37.606;2022-10-31T08:10:40;98497.59;;;3.54;68.65
74561;BME280;62979;55.720;37.606;2022-10-31T08:13:09;98495.03;;;3.54;68.40
74561;BME280;62979;55.720;37.606;2022-10-31T08:15:38;98489.97;;;3.45;67.33
74561;BME280;62979;55.720;37.606;2022-10-31T08:18:11;98503.50;;;3.62;67.10
74561;BME280;62979;55.720;37.606;2022-10-31T08:20:39;98507.69;;;3.71;66.56
74561;BME280;62979;55.720;37.606;2022-10-31T08:23:09;98508.41;;;3.79;66.14
74561;BME280;62979;55.720;37.606;2022-10-31T08:25:38;98516.03;;;3.86;65.47
74561;BME280;62979;55.720;37.606;2022-10-31T08:28:05;98519.56;;;3.81;63.70
74561;BME280;62979;55.720;37.606;2022-10-31T08:30:35;98526.38;;;3.86;65.13
74561;BME280;62979;55.720;37.606;2022-10-31T08:33:05;98527.16;;;3.90;64.90
74561;BME280;62979;55.720;37.606;2022-10-31T08:35:33;98525.19;;;4.04;64.21
74561;BME280;62979;55.720;37.606;2022-10-31T08:38:01;98524.34;;;4.05;63.21
74561;BME280;62979;55.720;37.606;2022-10-31T08:40:31;98534.44;;;4.19;63.26
74561;BME280;62979;55.720;37.606;2022-10-31T08:42:59;98537.91;;;4.20;63.27
74561;BME280;62979;55.720;37.606;2022-10-31T08:45:27;98557.72;;;4.19;62.71
74561;BME280;62979;55.720;37.606;2022-10-31T08:47:58;98568.91;;;4.21;62.86
74561;BME280;62979;55.720;37.606;2022-10-31T08:50:28;98577.56;;;4.20;62.79
74561;BME280;62979;55.720;37.606;2022-10-31T08:53:00;98565.38;;;4.27;62.96
74561;BME280;62979;55.720;37.606;2022-10-31T08:55:27;98576.50;;;4.31;63.29
74561;BME280;62979;55.720;37.606;2022-10-31T08:57:56;98583.50;;;4.27;62.55
74561;BME280;62979;55.720;37.606;2022-10-31T09:00:24;98582.78;;;4.17;61.96
74561;BME280;62979;55.720;37.606;2022-10-31T09:02:55;98565.53;;;4.16;61.31
74561;BME280;62979;55.720;37.606;2022-10-31T09:05:23;98587.97;;;4.17;60.95
74561;BME280;62979;55.720;37.606;2022-10-31T09:07:51;98587.84;;;4.25;60.90
74561;BME280;62979;55.720;37.606;2022-10-31T09:10:21;98591.06;;;4.36;61.26
74561;BME280;62979;55.720;37.606;2022-10-31T09:12:55;98586.34;;;4.10;59.69
74561;BME280;62979;55.720;37.606;2022-10-31T09:15:23;98596.00;;;4.00;57.85
74561;BME280;62979;55.720;37.606;2022-10-31T09:17:50;98596.72;;;4.07;59.19
74561;BME280;62979;55.720;37.606;2022-10-31T09:20:17;98588.13;;;4.06;58.57
74561;BME280;62979;55.720;37.606;2022-10-31T09:22:45;98594.75;;;4.24;59.13
74561;BME280;62979;55.720;37.606;2022-10-31T09:25:13;98598.97;;;4.30;58.20
74561;BME280;62979;55.720;37.606;2022-10-31T09:27:40;98605.81;;;4.34;57.48
74561;BME280;62979;55.720;37.606;2022-10-31T09:30:09;98602.84;;;4.54;57.83
74561;BME280;62979;55.720;37.606;2022-10-31T09:32:37;98591.03;;;4.39;55.97
74561;BME280;62979;55.720;37.606;2022-10-31T09:35:04;98612.63;;;4.38;56.20
74561;BME280;62979;55.720;37.606;2022-10-31T09:37:32;98617.66;;;4.46;56.58
74561;BME280;62979;55.720;37.606;2022-10-31T09:39:59;98626.94;;;4.59;55.93
74561;BME280;62979;55.720;37.606;2022-10-31T09:42:39;98627.34;;;4.83;56.81
74561;BME280;62979;55.720;37.606;2022-10-31T09:45:22;98630.44;;;5.03;56.40
74561;BME280;62979;55.720;37.606;2022-10-31T09:48:08;98656.03;;;5.20;56.83
74561;BME280;62979;55.720;37.606;2022-10-31T09:50:46;98636.13;;;5.22;56.30
74561;BME280;62979;55.720;37.606;2022-10-31T09:53:26;98653.25;;;5.29;55.92
74561;BME280;62979;55.720;37.606;2022-10-31T09:56:01;98647.28;;;5.26;56.20
74561;BME280;62979;55.720;37.606;2022-10-31T09:58:39;98653.09;;;5.37;56.09
74561;BME280;62979;55.720;37.606;2022-10-31T10:01:28;98668.88;;;6.09;55.32
74561;BME280;62979;55.720;37.606;2022-10-31T10:04:02;98679.19;;;6.12;54.18
74561;BME280;62979;55.720;37.606;2022-10-31T10:06:45;98688.16;;;5.56;55.02
74561;BME280;62979;55.720;37.606;2022-10-31T10:09:16;98699.09;;;5.26;57.12
74561;BME280;62979;55.720;37.606;2022-10-31T10:11:48;98712.13;;;5.23;59.25
74561;BME280;62979;55.720;37.606;2022-10-31T10:14:34;98730.66;;;5.01;60.13
74561;BME280;62979;55.720;37.606;2022-10-31T10:17:21;98728.88;;;5.05;60.63
74561;BME280;62979;55.720;37.606;2022-10-31T10:20:12;98729.16;;;5.36;60.72
74561;BME280;62979;55.720;37.606;2022-10-31T10:22:54;98705.94;;;5.30;59.34
74561;BME280;62979;55.720;37.606;2022-10-31T10:25:37;98727.75;;;5.63;58.42
74561;BME280;62979;55.720;37.606;2022-10-31T10:28:16;98721.78;;;5.61;57.57
74561;BME280;62979;55.720;37.606;2022-10-31T10:30:51;98725.22;;;5.60;58.46
74561;BME280;62979;55.720;37.606;2022-10-31T10:33:26;98736.59;;;5.53;57.55
74561;BME280;62979;55.720;37.606;2022-10-31T10:35:59;98714.50;;;5.35;58.93
74561;BME280;62979;55.720;37.606;2022-10-31T10:38:34;98741.56;;;5.19;58.33
74561;BME280;62979;55.720;37.606;2022-10-31T10:41:12;98746.41;;;4.90;58.88
74561;BME280;62979;55.720;37.606;2022-10-31T10:43:44;98726.47;;;4.92;58.50
74561;BME280;62979;55.720;37.606;2022-10-31T10:46:17;98742.69;;;5.05;59.00
74561;BME280;62979;55.720;37.606;2022-10-31T10:49:06;98748.34;;;5.26;58.12
74561;BME280;62979;55.720;37.606;2022-10-31T10:51:45;98740.50;;;5.30;57.71
74561;BME280;62979;55.720;37.606;2022-10-31T10:57:38;98747.13;;;5.47;57.34
74561;BME280;62979;55.720;37.606;2022-10-31T11:00:21;98746.44;;;5.37;57.28
74561;BME280;62979;55.720;37.606;2022-10-31T11:02:49;98746.28;;;5.46;58.55
74561;BME280;62979;55.720;37.606;2022-10-31T11:05:23;98750.78;;;5.36;56.84
74561;BME280;62979;55.720;37.606;2022-10-31T11:07:52;98745.50;;;4.93;57.52
74561;BME280;62979;55.720;37.606;2022-10-31T11:10:20;98741.25;;;4.87;58.88
74561;BME280;62979;55.720;37.606;2022-10-31T11:12:57;98737.03;;;4.82;58.74
74561;BME280;62979;55.720;37.606;2022-10-31T11:15:49;98724.56;;;4.53;59.78
74561;BME280;62979;55.720;37.606;2022-10-31T11:18:21;98731.59;;;4.43;60.00
74561;BME280;62979;55.720;37.606;2022-10-31T11:20:54;98739.19;;;4.55;59.91
74561;BME280;62979;55.720;37.606;2022-10-31T11:23:24;98735.03;;;4.45;59.30
74561;BME280;62979;55.720;37.606;2022-10-31T11:25:55;98764.16;;;4.59;59.33
74561;BME280;62979;55.720;37.606;2022-10-31T11:28:23;98757.44;;;4.46;59.86
74561;BME280;62979;55.720;37.606;2022-10-31T11:30:53;98756.44;;;4.56;60.08
74561;BME280;62979;55.720;37.606;2022-10-31T11:33:26;98751.41;;;4.47;59.54
74561;BME280;62979;55.720;37.606;2022-10-31T11:36:00;98759.09;;;4.52;60.07
74561;BME280;62979;55.720;37.606;2022-10-31T11:38:34;98767.72;;;4.52;59.82
74561;BME280;62979;55.720;37.606;2022-10-31T11:41:11;98760.09;;;4.43;60.09
74561;BME280;62979;55.720;37.606;2022-10-31T11:43:46;98767.06;;;4.38;60.19
74561;BME280;62979;55.720;37.606;2022-10-31T11:46:20;98760.19;;;4.37;60.26
74561;BME280;62979;55.720;37.606;2022-10-31T11:48:53;98769.72;;;4.33;60.23
74561;BME280;62979;55.720;37.606;2022-10-31T11:51:24;98762.97;;;4.23;59.66
74561;BME280;62979;55.720;37.606;2022-10-31T11:53:55;98774.31;;;4.13;59.62
74561;BME280;62979;55.720;37.606;2022-10-31T11:56:24;98786.19;;;4.27;60.40
74561;BME280;62979;55.720;37.606;2022-10-31T11:58:55;98789.00;;;4.11;59.82
74561;BME280;62979;55.720;37.606;2022-10-31T12:01:25;98779.34;;;4.23;60.17
74561;BME280;62979;55.720;37.606;2022-10-31T12:04:01;98784.69;;;4.13;60.16
74561;BME280;62979;55.720;37.606;2022-10-31T12:06:35;98773.31;;;4.23;60.37
74561;BME280;62979;55.720;37.606;2022-10-31T12:09:13;98779.28;;;4.26;60.10
74561;BME280;62979;55.720;37.606;2022-10-31T12:11:56;98773.44;;;4.14;60.29
74561;BME280;62979;55.720;37.606;2022-10-31T12:14:59;98788.16;;;4.08;60.88
74561;BME280;62979;55.720;37.606;2022-10-31T12:17:41;98795.03;;;4.11;61.32
74561;BME280;62979;55.720;37.606;2022-10-31T12:20:24;98798.06;;;3.73;62.52
74561;BME280;62979;55.720;37.606;2022-10-31T12:23:06;98794.63;;;3.72;63.08
74561;BME280;62979;55.720;37.606;2022-10-31T12:25:45;98790.25;;;3.77;63.07
74561;BME280;62979;55.720;37.606;2022-10-31T12:28:43;98793.94;;;3.58;63.97
74561;BME280;62979;55.720;37.606;2022-10-31T12:31:31;98799.13;;;3.56;64.56
74561;BME280;62979;55.720;37.606;2022-10-31T12:34:29;98793.22;;;3.47;65.20
74561;BME280;62979;55.720;37.606;2022-10-31T12:37:19;98808.72;;;3.45;66.00
74561;BME280;62979;55.720;37.606;2022-10-31T12:40:21;98783.88;;;3.32;67.15
74561;BME280;62979;55.720;37.606;2022-10-31T12:43:20;98807.06;;;3.39;67.04
74561;BME280;62979;55.720;37.606;2022-10-31T12:45:59;98819.28;;;3.20;68.03
74561;BME280;62979;55.720;37.606;2022-10-31T12:48:49;98795.06;;;3.31;67.91
74561;BME280;62979;55.720;37.606;2022-10-31T12:51:34;98811.47;;;3.28;67.80
74561;BME280;62979;55.720;37.606;2022-10-31T12:54:22;98821.72;;;3.36;67.51
74561;BME280;62979;55.720;37.606;2022-10-31T12:57:10;98809.75;;;3.27;67.70
74561;BME280;62979;55.720;37.606;2022-10-31T12:59:45;98819.25;;;3.25;67.78
74561;BME280;62979;55.720;37.606;2022-10-31T13:02:19;98818.13;;;3.51;67.13
74561;BME280;62979;55.720;37.606;2022-10-31T13:04:54;98838.75;;;3.57;67.03
74561;BME280;62979;55.720;37.606;2022-10-31T13:07:34;98837.16;;;3.43;66.60
74561;BME280;62979;55.720;37.606;2022-10-31T13:10:08;98826.84;;;3.40;66.56
74561;BME280;62979;55.720;37.606;2022-10-31T13:12:46;98839.66;;;3.54;66.40
74561;BME280;62979;55.720;37.606;2022-10-31T13:15:19;98829.28;;;3.56;66.21
74561;BME280;62979;55.720;37.606;2022-10-31T13:17:52;98844.75;;;3.60;66.33
74561;BME280;62979;55.720;37.606;2022-10-31T13:20:26;98857.44;;;3.83;66.20
74561;BME280;62979;55.720;37.606;2022-10-31T13:23:03;98852.22;;;3.86;65.30
74561;BME280;62979;55.720;37.606;2022-10-31T13:25:39;98845.38;;;3.85;64.81
74561;BME280;62979;55.720;37.606;2022-10-31T13:28:24;98853.13;;;3.85;65.19
74561;BME280;62979;55.720;37.606;2022-10-31T13:30:57;98851.44;;;3.80;65.31
74561;BME280;62979;55.720;37.606;2022-10-31T13:33:27;98864.28;;;3.91;64.86
74561;BME280;62979;55.720;37.606;2022-10-31T13:36:08;98873.72;;;3.93;64.90